Hlavní strana
METAR-TAF:

METAR-TAF

Letiště :

Koror, Babeldaob, Palau

zeměpisná šířka: 07-22N, zeměpisná délka: 134-32E, výška: 54 m

Aktuální stav počasí

Zpráva byla vytvořena před 18 minutami, v 18:50 UTC
Západoseverozápadní vítr 12 kt
Teplota 26°C
Vlhkost vzduchu 84%
Tlak 1005 hPa
Viditelnost: 20.9 km
Skoro jasno ve výšce 800 ft
Oblačno až skoro zataženo ve výšce 1600 ft, Cumulonimbus.
Oblačno až skoro zataženo ve výšce 29000 ft

METAR: PTRO 151850Z 30012KT 13SM FEW008 BKN016CB BKN290 26/23 A2967 RMK CB ALQDS

Čas: 04:08 (19:08 UTC)

Předpověď počasí

Zpráva byla vytvořena před 1 hodinou a 30 minutami, v 17:38 UTC
Předpověď platná od 15 v 18 UTC do 16 v 18 UTC
Západoseverozápadní vítr 11 kt s nárazy do 23 kt
Viditelnost: 10 km
Polojasno ve výšce 1600 ft
Oblačno až skoro zataženo ve výšce 4000 ft
Zataženo ve výšce 11000 ft
přeháňky v blízkosti

TAF: PTRO 151738Z 1518/1618 30011G23KT P6SM VCSH SCT016 BKN040 OVC110

Stav a předpovědi počasí z více než 4 000 letišť (zprávy METAR a TAF).

Červené a žluté tečky na mapě představují dostupné meteorologické stanice.

Když kurzor umístíte na tečku, zobrazí se název stanice.

Pak kliknutím zobrazíte stav a předpověď počasí.

Chcete-li změnit mapu, kliknutím na zelené tlačítko se znaménkem +mapu přiblížíte, kliknutím na zelené tlačítko se znaménkem – mapu oddálíte a kliknutím na zelené šipky přejdete na sousední mapy.


METAR-TAF: